M I D A S
Marine Information and Data Acquisition System
Tripno 1232 of the Zeeleeuw from 2007-03-16 08:07:43 to 2007-03-16 14:35:49
Back to CruiseResearch ActivitiesStationsMapUnderway DataData graphs

EquipmentUnitsComment
TimeDGPSUTC
LatitudeDGPSDM.mWGS84
LongitudeDGPSDM.mWGS84
TemperatureSBE03/SBE38deg celciusITS90
ConductivitySBE21S/mITS90
SalinitySBE21 Practical Salinity Units
ChlorophylAChelsea fluorimeterg/lCalibrated in Aceton
Missing or incorrect values are displayed as -999
Sea surface data collected by the RV Zeeleeuw from 2007-03-16 08:07:44 to 2007-03-16 14:45:47
Time Latitude Longitude Temperature Conductivity Salinity ChlorophylA
2007-03-16 08:08:49 51°13.614 2°56.038 16.6608 0.008797 0.049007 -2.871232
2007-03-16 08:09:49 51°13.653 2°55.918 16.713 0.008797 0.049003 -2.871232
2007-03-16 08:10:49 51°13.681 2°55.804 16.7346 0.008797 0.048997 -2.871232
2007-03-16 08:11:49 51°13.683 2°55.736 16.7743 0.008797 0.04899 -2.871232
2007-03-16 08:12:49 51°13.708 2°55.743 16.7869 0.008797 0.048984 -2.871232
2007-03-16 08:13:49 51°13.791 2°55.666 16.4927 0.008797 0.048976 -2.871232
2007-03-16 08:14:49 51°13.936 2°55.558 16.4829 0.008797 0.048969 -2.871232
2007-03-16 08:15:49 51°14.057 2°55.472 16.5836 0.008797 0.048974 -2.871232
2007-03-16 08:16:49 51°14.179 2°55.372 16.6139 0.008797 0.048979 -2.871232
2007-03-16 08:17:49 51°14.316 2°55.158 16.6273 0.008797 0.048981 -2.871232
2007-03-16 08:18:49 51°14.437 2°54.867 16.7022 0.008797 0.048996 -2.871232
2007-03-16 08:19:49 51°14.431 2°54.53 16.7101 0.008797 0.049009 -2.871232
2007-03-16 08:20:49 51°14.322 2°54.24 16.7332 0.008797 0.049027 -2.871232
2007-03-16 08:21:49 51°14.209 2°53.948 16.7593 0.008797 0.049053 -2.871232
2007-03-16 08:22:49 51°14.097 2°53.655 16.7888 0.008797 0.049085 -2.871232
2007-03-16 08:23:49 51°13.985 2°53.361 16.8132 0.008797 0.049118 -2.871232
2007-03-16 08:24:49 51°13.874 2°53.067 16.8431 0.008797 0.049151 -2.871232
2007-03-16 08:25:49 51°13.764 2°52.771 16.8669 0.008797 0.049184 -2.871232
2007-03-16 08:26:49 51°13.655 2°52.471 16.8896 0.008694 0.048711 -2.871232
2007-03-16 08:27:49 51°13.545 2°52.171 16.9173 0.008694 0.048742 -2.871232
2007-03-16 08:28:49 51°13.434 2°51.871 16.9494 0.008694 0.048776 -2.871232
2007-03-16 08:29:49 51°13.323 2°51.571 16.9857 0.008694 0.048809 -2.871232
2007-03-16 08:30:49 51°13.212 2°51.273 17.0057 0.008694 0.048841 -2.871232
2007-03-16 08:31:49 51°13.104 2°50.976 17.0258 0.008694 0.048872 -2.871232
2007-03-16 08:32:50 51°13.001 2°50.67 17.0525 0.008694 0.048906 -2.871232
2007-03-16 08:33:49 51°12.9 2°50.375 17.0458 0.008694 0.048938 -2.871232
2007-03-16 08:34:50 51°12.799 2°50.067 17.0923 0.008694 0.048971 -2.871232
2007-03-16 08:35:50 51°12.698 2°49.764 17.093 0.008694 0.049003 -2.871232
2007-03-16 08:36:50 51°12.599 2°49.462 17.1371 0.008694 0.049034 -2.871232
2007-03-16 08:37:50 51°12.499 2°49.16 17.1324 0.008591 0.048553 -2.871232
2007-03-16 08:38:50 51°12.4 2°48.859 17.1852 0.008591 0.048583 -2.871232
2007-03-16 08:39:49 51°12.304 2°48.563 17.1901 0.008591 0.048615 -2.871232
2007-03-16 08:40:50 51°12.232 2°48.238 17.2248 0.008591 0.048645 -2.871232
2007-03-16 08:41:50 51°12.164 2°47.917 17.264 0.008591 0.048676 -2.871232
2007-03-16 08:42:49 51°12.105 2°47.595 17.2726 0.008591 0.048706 -2.871232
2007-03-16 08:43:50 51°12.049 2°47.262 17.278 0.008591 0.048732 -2.871232
2007-03-16 08:44:49 51°12.036 2°46.927 17.3388 0.008591 0.048748 -2.871232
2007-03-16 08:45:47 51°12.003 2°46.603 9.6815 0.008591 0.04872 -2.871232
2007-03-16 08:46:45 51°11.967 2°46.284 9.567 3.649351 31.95257 -2.871232
2007-03-16 08:47:45 51°11.931 2°45.958 9.5307 3.587822 31.56578 -2.871232
2007-03-16 08:48:45 51°11.895 2°45.632 9.5382 3.604707 31.794405 -2.871232
2007-03-16 08:49:46 51°11.857 2°45.301 9.5631 3.601185 31.765665 -2.871232
2007-03-16 08:50:45 51°11.821 2°44.982 9.5811 3.606675 31.810391 -2.871232
2007-03-16 08:51:45 51°11.784 2°44.66 9.5858 3.621903 31.95472 -2.871232
2007-03-16 08:52:45 51°11.746 2°44.336 9.5708 3.617863 31.92423 -2.871232
2007-03-16 08:53:45 51°11.707 2°44.012 9.5586 3.601082 31.77787 -2.871232
2007-03-16 08:54:45 51°11.67 2°43.687 9.5517 3.618692 31.961443 -2.871232
2007-03-16 08:55:45 51°11.633 2°43.363 9.4994 3.614548 31.941548 -2.871232
2007-03-16 08:56:45 51°11.597 2°43.037 9.4904 3.611649 31.961337 -2.871232
2007-03-16 08:57:45 51°11.56 2°42.713 9.5002 3.614963 31.997283 -2.871232
2007-03-16 08:58:45 51°11.519 2°42.392 9.5045 3.611441 31.955131 -2.871232
2007-03-16 08:59:45 51°11.459 2°42.076 9.5144 3.605433 31.891892 -2.871232
2007-03-16 09:00:45 51°11.4 2°41.759 9.516 3.624597 32.076189 -2.871232
2007-03-16 09:01:45 51°11.342 2°41.444 9.5575 3.64428 32.25561 -2.871232
2007-03-16 09:02:45 51°11.284 2°41.131 9.5511 3.646559 32.255343 -2.871232
2007-03-16 09:03:45 51°11.228 2°40.817 9.5783 3.647491 32.259473 -2.871232
2007-03-16 09:04:45 51°11.174 2°40.503 9.5774 3.649149 32.264853 -2.871232
2007-03-16 09:05:45 51°11.104 2°40.198 9.5672 3.649667 32.273306 -2.871232
2007-03-16 09:06:45 51°11.015 2°39.909 9.5745 3.64946 32.279672 -2.871232
2007-03-16 09:07:46 51°10.86 2°39.688 9.5862 3.650288 32.281099 -2.871232
2007-03-16 09:08:46 51°10.699 2°39.483 9.5951 3.650184 32.269998 -2.871232
2007-03-16 09:09:46 51°10.539 2°39.273 9.5985 3.651842 32.282933 -2.871232
2007-03-16 09:10:46 51°10.379 2°39.062 9.5926 3.649977 32.265442 -2.871232
2007-03-16 09:11:46 51°10.219 2°38.847 9.5919 3.648423 32.259402 -2.871232
2007-03-16 09:12:46 51°10.064 2°38.623 9.5949 3.64832 32.254185 -2.871232
2007-03-16 09:13:46 51°9.907 2°38.405 9.6205 3.649563 32.247941 -2.871232
2007-03-16 09:14:45 51°9.754 2°38.191 9.6041 3.647905 32.231655 -2.871232
2007-03-16 09:15:45 51°9.597 2°37.976 9.5766 3.641897 32.190213 -2.871232
2007-03-16 09:16:46 51°9.443 2°37.75 9.5748 3.636406 32.152997 -2.871232
2007-03-16 09:17:46 51°9.35 2°37.577 9.5689 3.634231 32.134959 -2.871232
2007-03-16 09:18:46 51°9.291 2°37.48 9.5769 3.627187 32.068224 -2.871232
2007-03-16 09:19:46 51°9.247 2°37.403 9.5834 3.626772 32.059141 -2.871232
2007-03-16 09:20:46 51°9.217 2°37.325 9.5879 3.622836 32.017126 -2.871232
2007-03-16 09:21:46 51°9.188 2°37.251 9.5898 3.622318 32.009537 -2.871232
2007-03-16 09:22:46 51°9.161 2°37.181 9.595 3.6247 32.022938 -2.871232
2007-03-16 09:23:46 51°9.158 2°37.143 9.5923 3.628533 32.061419 -2.871232
2007-03-16 09:24:46 51°9.167 2°37.151 9.5938 3.629983 32.076501 -2.871232
2007-03-16 09:25:46 51°9.176 2°37.166 9.5921 3.629362 32.070395 -2.871232
2007-03-16 09:26:46 51°9.183 2°37.186 9.5955 3.62988 32.075483 -2.871232
2007-03-16 09:27:46 51°9.19 2°37.207 9.5915 3.630294 32.077049 -2.871232
2007-03-16 09:28:46 51°9.196 2°37.231 9.5924 3.630191 32.081041 -2.871232
2007-03-16 09:29:46 51°9.201 2°37.257 9.5986 3.629569 32.073265 -2.871232
2007-03-16 09:30:46 51°9.206 2°37.283 9.5988 3.628119 32.054012 -2.871232
2007-03-16 09:31:46 51°9.211 2°37.31 9.5992 3.629051 32.063169 -2.871232
2007-03-16 09:32:46 51°9.215 2°37.338 9.6032 3.62729 32.04337 -2.871232
2007-03-16 09:33:46 51°9.22 2°37.364 9.6064 3.626254 32.03153 -2.871232
2007-03-16 09:34:46 51°9.225 2°37.39 9.6088 3.625736 32.023944 -2.871232
2007-03-16 09:35:46 51°9.229 2°37.417 9.6092 3.625736 32.021444 -2.871232
2007-03-16 09:36:46 51°9.233 2°37.445 9.6075 3.626772 32.031615 -2.871232
2007-03-16 09:37:46 51°9.236 2°37.474 9.6064 3.629154 32.056678 -2.871232
2007-03-16 09:38:46 51°9.237 2°37.503 9.6062 3.630708 32.072772 -2.871232
2007-03-16 09:39:46 51°9.24 2°37.533 9.6081 3.632677 32.091267 -2.871232
2007-03-16 09:40:46 51°9.242 2°37.564 9.6092 3.632987 32.09265 -2.871232
2007-03-16 09:41:46 51°9.244 2°37.594 9.6117 3.633195 32.092179 -2.871232
2007-03-16 09:42:46 51°9.247 2°37.625 9.6114 3.633816 32.097448 -2.871232
2007-03-16 09:43:46 51°9.249 2°37.655 9.6097 3.634748 32.108275 -2.871232
2007-03-16 09:44:46 51°9.251 2°37.685 9.5988 3.637028 32.133167 -2.871232
2007-03-16 09:45:46 51°9.253 2°37.714 9.5956 3.639721 32.167996 -2.871232
2007-03-16 09:46:46 51°9.254 2°37.742 9.598 3.639203 32.166255 -2.871232
2007-03-16 09:47:46 51°9.257 2°37.769 9.5972 3.640032 32.171888 -2.871232
2007-03-16 09:48:46 51°9.26 2°37.795 9.5948 3.639825 32.170689 -2.871232
2007-03-16 09:49:46 51°9.263 2°37.822 9.5946 3.639618 32.16949 -2.871232
2007-03-16 09:50:46 51°9.265 2°37.849 9.5932 3.639307 32.166436 -2.871232
2007-03-16 09:51:46 51°9.268 2°37.876 9.5936 3.638996 32.164219 -2.871232
2007-03-16 09:52:46 51°9.271 2°37.902 9.5926 3.638789 32.163857 -2.871232
2007-03-16 09:53:46 51°9.274 2°37.928 9.6003 3.638892 32.164038 -2.871232
2007-03-16 09:54:46 51°9.278 2°37.953 9.6022 3.6391 32.161052 -2.871232
2007-03-16 09:55:46 51°9.282 2°37.979 9.6043 3.6391 32.158541 -2.871232
2007-03-16 09:56:46 51°9.285 2°38.005 9.6097 3.638996 32.156686 -2.871232
2007-03-16 09:57:46 51°9.289 2°38.031 9.6117 3.639203 32.152028 -2.871232
2007-03-16 09:58:46 51°9.293 2°38.057 9.6074 3.63941 32.151554 -2.871232
2007-03-16 09:59:46 51°9.297 2°38.083 9.6057 3.638374 32.146396 -2.871232
2007-03-16 10:00:46 51°9.302 2°38.11 9.6111 3.637131 32.134185 -2.871232
2007-03-16 10:01:46 51°9.306 2°38.136 9.6135 3.638271 32.143706 -2.871232
2007-03-16 10:02:46 51°9.312 2°38.162 9.6168 3.636924 32.124627 -2.871232
2007-03-16 10:03:46 51°9.317 2°38.187 9.6204 3.636199 32.114999 -2.871232
2007-03-16 10:04:46 51°9.321 2°38.213 9.6184 3.634438 32.097707 -2.871232
2007-03-16 10:05:46 51°9.326 2°38.239 9.6184 3.634852 32.100941 -2.871232
2007-03-16 10:06:46 51°9.331 2°38.264 9.6156 3.634438 32.097707 -2.871232
2007-03-16 10:07:46 51°9.336 2°38.288 9.6284 3.633298 32.089857 -2.871232
2007-03-16 10:08:46 51°9.342 2°38.313 9.6312 3.634334 32.089178 -2.871232
2007-03-16 10:09:46 51°9.347 2°38.338 9.6298 3.628947 32.032973 -2.871232
2007-03-16 10:10:46 51°9.352 2°38.364 9.6219 3.632469 32.070875 -2.871232
2007-03-16 10:11:46 51°9.357 2°38.389 9.6215 3.630397 32.058042 -2.871232
2007-03-16 10:12:46 51°9.363 2°38.414 9.6205 3.630708 32.061927 -2.871232
2007-03-16 10:13:46 51°9.368 2°38.439 9.6247 3.632987 32.08013 -2.871232
2007-03-16 10:14:46 51°9.373 2°38.464 9.6267 3.634023 32.088631 -2.871232
2007-03-16 10:15:46 51°9.378 2°38.49 9.6211 3.633505 32.085215 -2.871232
2007-03-16 10:16:46 51°9.382 2°38.515 9.617 3.633609 32.08957 -2.871232
2007-03-16 10:17:46 51°9.387 2°38.541 9.6183 3.633298 32.086519 -2.871232
2007-03-16 10:18:46 51°9.392 2°38.565 9.6223 3.633402 32.086701 -2.871232
2007-03-16 10:19:46 51°9.397 2°38.591 9.6294 3.63392 32.086779 -2.871232
2007-03-16 10:20:46 51°9.401 2°38.617 9.6323 3.628533 32.02974 -2.871232
2007-03-16 10:21:46 51°9.407 2°38.642 9.6495 3.631744 32.055421 -2.871232
2007-03-16 10:22:46 51°9.411 2°38.666 9.6409 3.629361 32.023718 -2.871232
2007-03-16 10:23:46 51°9.412 2°38.673 9.6606 3.625632 31.995455 -2.871232
2007-03-16 10:24:46 51°9.408 2°38.663 9.6363 3.630293 32.021212 -2.871232
2007-03-16 10:25:46 51°9.403 2°38.64 9.6051 3.626564 32.010426 -2.871232
2007-03-16 10:26:46 51°9.396 2°38.612 9.5911 3.627704 32.049108 -2.871232
2007-03-16 10:27:46 51°9.39 2°38.59 9.5906 3.621074 31.994828 -2.871232
2007-03-16 10:28:46 51°9.383 2°38.57 9.5873 3.621592 31.998249 -2.871232
2007-03-16 10:29:46 51°9.377 2°38.553 9.5998 3.622525 32.008239 -2.871232
2007-03-16 10:30:46 51°9.371 2°38.535 9.5976 3.62325 31.997869 -2.871232
2007-03-16 10:31:46 51°9.367 2°38.517 9.5936 3.627186 32.043187 -2.871232
2007-03-16 10:32:46 51°9.363 2°38.496 9.5901 3.626358 32.043387 -2.871232
2007-03-16 10:33:46 51°9.36 2°38.474 9.587 3.628326 32.066061 -2.871232
2007-03-16 10:34:46 51°9.355 2°38.451 9.5903 3.629362 32.07958 -2.871232
2007-03-16 10:35:46 51°9.35 2°38.429 9.585 3.62988 32.080493 -2.871232
2007-03-16 10:36:46 51°9.345 2°38.408 9.582 3.629466 32.082268 -2.871232
2007-03-16 10:37:46 51°9.338 2°38.387 9.5831 3.62988 32.088011 -2.871232
2007-03-16 10:38:46 51°9.331 2°38.367 9.5825 3.630398 32.090595 -2.871232
2007-03-16 10:39:46 51°9.325 2°38.346 9.5833 3.630605 32.093467 -2.871232
2007-03-16 10:40:46 51°9.32 2°38.324 9.5805 3.630812 32.095503 -2.871232
2007-03-16 10:41:46 51°9.315 2°38.302 9.5951 3.631744 32.096308 -2.871232
2007-03-16 10:42:46 51°9.31 2°38.281 9.5842 3.632987 32.101002 -2.871232
2007-03-16 10:43:46 51°9.304 2°38.258 9.6264 3.63278 32.106487 -2.871232
2007-03-16 10:44:46 51°9.301 2°38.233 9.6389 3.635681 32.115761 -2.871232
2007-03-16 10:45:46 51°9.298 2°38.207 9.6314 3.638995 32.11657 -2.871232
2007-03-16 10:46:46 51°9.293 2°38.185 9.6436 3.639513 32.130003 -2.871232
2007-03-16 10:47:46 51°9.286 2°38.166 9.6441 3.640239 32.142135 -2.871232
2007-03-16 10:48:46 51°9.279 2°38.146 9.6671 3.641067 32.146092 -2.871232
2007-03-16 10:49:46 51°9.274 2°38.127 9.6881 3.643864 32.150148 -2.871232
2007-03-16 10:50:46 51°9.271 2°38.107 9.6824 3.645522 32.158056 -2.871232
2007-03-16 10:51:46 51°9.268 2°38.087 9.6552 3.645936 32.162956 -2.871232
2007-03-16 10:52:46 51°9.265 2°38.069 9.6435 3.645418 32.174587 -2.871232
2007-03-16 10:53:46 51°9.262 2°38.05 9.6481 3.6449 32.177866 -2.871232
2007-03-16 10:54:46 51°9.258 2°38.032 9.6728 3.647076 32.174134 -2.871232
2007-03-16 10:55:46 51°9.255 2°38.012 9.6972 3.648008 32.181608 -2.871232
2007-03-16 10:56:46 51°9.254 2°37.99 9.679 3.64894 32.182397 -2.871232
2007-03-16 10:57:46 51°9.253 2°37.975 9.652 3.648319 32.19469 -2.871232
2007-03-16 10:58:46 51°9.254 2°37.969 9.7299 3.647905 32.194806 -2.871232
2007-03-16 10:59:46 51°9.257 2°37.97 9.746 3.653187 32.175606 -2.871232
2007-03-16 11:00:46 51°9.261 2°37.974 9.701 3.653602 32.188843 -2.871232
2007-03-16 11:01:46 51°9.267 2°37.983 9.7029 3.65153 32.187741 -2.871232
2007-03-16 11:02:46 51°9.274 2°37.993 9.7215 3.638166 32.047642 -2.871232
2007-03-16 11:03:46 51°9.282 2°38.006 9.6863 3.652255 32.193179 -2.871232
2007-03-16 11:04:46 51°9.291 2°38.021 9.6881 3.650598 32.196981 -2.871232
2007-03-16 11:05:46 51°9.3 2°38.04 9.6807 3.651012 32.196866 -2.871232
2007-03-16 11:06:46 51°9.31 2°38.06 9.6906 3.650805 32.199013 -2.871232
2007-03-16 11:07:46 51°9.32 2°38.082 9.6692 3.650909 32.202537 -2.871232
2007-03-16 11:08:46 51°9.331 2°38.105 9.6561 3.649666 32.198704 -2.871232
2007-03-16 11:09:46 51°9.342 2°38.13 9.6435 3.648319 32.202219 -2.871232
2007-03-16 11:10:46 51°9.351 2°38.156 9.6396 3.647594 32.205981 -2.871232
2007-03-16 11:11:46 51°9.361 2°38.182 9.6429 3.647698 32.204487 -2.871232
2007-03-16 11:12:46 51°9.37 2°38.208 9.6531 3.648319 32.206404 -2.871232
2007-03-16 11:13:46 51°9.379 2°38.236 9.6685 3.64863 32.204433 -2.871232
2007-03-16 11:14:46 51°9.387 2°38.264 9.6888 3.644382 32.145209 -2.871232
2007-03-16 11:15:46 51°9.395 2°38.292 9.7118 3.64635 32.146149 -2.871232
2007-03-16 11:16:46 51°9.402 2°38.32 9.7328 3.648007 32.13571 -2.871232
2007-03-16 11:17:46 51°9.41 2°38.349 9.733 3.645935 32.104594 -2.871232
2007-03-16 11:18:46 51°9.416 2°38.378 9.7708 3.653291 32.169949 -2.871232
2007-03-16 11:19:46 51°9.423 2°38.406 9.7461 3.655259 32.162551 -2.871232
2007-03-16 11:20:46 51°9.429 2°38.434 9.8063 3.653705 32.162337 -2.871232
2007-03-16 11:21:46 51°9.436 2°38.463 9.8472 3.658987 32.141621 -2.871232
2007-03-16 11:22:46 51°9.442 2°38.492 9.8233 3.658055 32.142482 -2.871232
2007-03-16 11:23:46 51°9.449 2°38.521 9.8454 3.657434 32.138071 -2.871232
2007-03-16 11:24:46 51°9.455 2°38.55 9.8027 3.658469 32.135731 -2.871232
2007-03-16 11:25:46 51°9.462 2°38.579 9.8245 3.655673 32.135818 -2.871232
2007-03-16 11:26:46 51°9.468 2°38.608 9.8024 3.656708 32.131815 -2.871232
2007-03-16 11:27:46 51°9.475 2°38.637 9.7947 3.655051 32.133067 -2.871232
2007-03-16 11:28:46 51°9.482 2°38.666 9.7903 3.654326 32.131797 -2.871232
2007-03-16 11:29:46 51°9.489 2°38.694 9.7583 3.653497 32.132008 -2.871232
2007-03-16 11:30:46 51°9.495 2°38.722 9.7712 3.651115 32.131993 -2.871232
2007-03-16 11:31:46 51°9.501 2°38.751 9.7585 3.651633 32.130404 -2.871232
2007-03-16 11:32:46 51°9.507 2°38.78 9.7791 3.651115 32.124504 -2.871232
2007-03-16 11:33:46 51°9.513 2°38.808 9.7603 3.652047 32.122813 -2.871232
2007-03-16 11:34:46 51°9.52 2°38.837 9.7607 3.650182 32.122037 -2.871232
2007-03-16 11:35:46 51°9.525 2°38.865 9.6964 3.647075 32.139078 -2.871232
2007-03-16 11:36:46 51°9.531 2°38.894 9.6789 3.645211 32.129142 -2.871232
2007-03-16 11:37:46 51°9.537 2°38.923 9.6956 3.64376 32.124098 -2.871232
2007-03-16 11:38:46 51°9.559 2°38.979 9.7067 3.64521 32.123307 -2.871232
2007-03-16 11:39:46 51°9.558 2°39.078 9.7065 3.6449 32.1336 -2.871232
2007-03-16 11:40:46 51°9.536 2°39.141 9.6546 3.644175 32.119823 -2.871232
2007-03-16 11:41:46 51°9.515 2°39.178 9.6821 3.642414 32.140095 -2.871232
2007-03-16 11:42:46 51°9.499 2°39.209 9.7137 3.645211 32.137481 -2.871232
2007-03-16 11:43:46 51°9.473 2°39.234 9.7328 3.647179 32.133425 -2.871232
2007-03-16 11:44:46 51°9.41 2°39.209 9.7932 3.650804 32.134778 -2.871232
2007-03-16 11:45:46 51°9.356 2°39.14 9.8389 3.661889 32.190759 -2.871232
2007-03-16 11:46:46 51°9.327 2°39.069 9.885 3.668622 32.21827 -2.871232
2007-03-16 11:47:46 51°9.297 2°39.008 9.8953 3.674527 32.245967 -2.871232
2007-03-16 11:48:46 51°9.276 2°38.939 9.8659 3.68323 32.320081 -2.871232
2007-03-16 11:49:46 51°9.26 2°38.858 9.8172 3.68696 32.403305 -2.871232
2007-03-16 11:50:46 51°9.246 2°38.774 9.8055 3.686235 32.427218 -2.871232
2007-03-16 11:51:46 51°9.233 2°38.695 9.8021 3.686236 32.432251 -2.871232
2007-03-16 11:52:46 51°9.221 2°38.618 9.7969 3.686028 32.437775 -2.871232
2007-03-16 11:53:46 51°9.208 2°38.542 9.7952 3.685925 32.439279 -2.871232
2007-03-16 11:54:46 51°9.195 2°38.465 9.7935 3.686236 32.444001 -2.871232
2007-03-16 11:55:46 51°9.183 2°38.386 9.7922 3.686443 32.448549 -2.871232
2007-03-16 11:56:46 51°9.171 2°38.306 9.7943 3.686961 32.451102 -2.871232
2007-03-16 11:57:46 51°9.16 2°38.227 9.812 3.687893 32.456872 -2.871232
2007-03-16 11:58:46 51°9.148 2°38.15 9.8155 3.689551 32.464702 -2.871232
2007-03-16 11:59:46 51°9.136 2°38.073 9.8059 3.691105 32.478234 -2.871232
2007-03-16 12:00:46 51°9.125 2°37.996 9.797 3.691209 32.485971 -2.871232
2007-03-16 12:01:46 51°9.113 2°37.92 9.789 3.691416 32.491363 -2.871232
2007-03-16 12:02:46 51°9.102 2°37.844 9.7874 3.690898 32.493858 -2.871232
2007-03-16 12:03:46 51°9.091 2°37.769 9.7803 3.691002 32.497396 -2.871232
2007-03-16 12:04:46 51°9.08 2°37.693 9.7802 3.69038 32.494672 -2.871232
2007-03-16 12:05:46 51°9.068 2°37.618 9.7809 3.690277 32.495339 -2.871232
2007-03-16 12:06:46 51°9.056 2°37.542 9.7809 3.690069 32.493309 -2.871232
2007-03-16 12:07:46 51°9.045 2°37.466 9.7749 3.689551 32.489076 -2.871232
2007-03-16 12:08:46 51°9.033 2°37.39 9.7701 3.688826 32.486177 -2.871232
2007-03-16 12:09:46 51°9.02 2°37.315 9.7684 3.688101 32.483277 -2.871232
2007-03-16 12:10:46 51°9.008 2°37.24 9.7644 3.687272 32.479362 -2.871232
2007-03-16 12:11:46 51°8.996 2°37.164 9.759 3.686754 32.476809 -2.871232
2007-03-16 12:12:46 51°8.983 2°37.087 9.7594 3.685925 32.474575 -2.871232
2007-03-16 12:13:46 51°8.971 2°37.011 9.756 3.685822 32.472719 -2.871232
2007-03-16 12:14:46 51°8.959 2°36.934 9.7524 3.685304 32.471848 -2.871232
2007-03-16 12:15:46 51°8.946 2°36.858 9.7491 3.684993 32.470484 -2.871232
2007-03-16 12:16:46 51°8.935 2°36.779 9.7448 3.684682 32.470803 -2.871232
2007-03-16 12:17:46 51°8.923 2°36.701 9.742 3.684164 32.46909 -2.871232
2007-03-16 12:18:46 51°8.911 2°36.622 9.7395 3.68375 32.469235 -2.871232
2007-03-16 12:19:46 51°8.898 2°36.543 9.7356 3.683439 32.468712 -2.871232
2007-03-16 12:20:46 51°8.886 2°36.463 9.7319 3.682921 32.468683 -2.871232
2007-03-16 12:21:46 51°8.873 2°36.383 9.7308 3.682714 32.467492 -2.871232
2007-03-16 12:22:46 51°8.86 2°36.303 9.7259 3.682507 32.467986 -2.871232
2007-03-16 12:23:46 51°8.841 2°36.227 9.7237 3.682092 32.469815 -2.871232
2007-03-16 12:24:46 51°8.817 2°36.154 9.7156 3.681678 32.468276 -2.871232
2007-03-16 12:25:46 51°8.795 2°36.08 9.711 3.68116 32.469089 -2.871232
2007-03-16 12:26:46 51°8.772 2°36.005 9.7029 3.680849 32.468566 -2.871232
2007-03-16 12:27:46 51°8.75 2°35.93 9.7027 3.680331 32.46938 -2.871232
2007-03-16 12:28:46 51°8.725 2°35.856 9.6953 3.679813 32.470194 -2.871232
2007-03-16 12:29:46 51°8.709 2°35.778 9.6999 3.679399 32.467812 -2.871232
2007-03-16 12:30:46 51°8.709 2°35.694 9.6978 3.679192 32.464936 -2.871232
2007-03-16 12:31:46 51°8.729 2°35.616 9.6972 3.678777 32.462553 -2.871232
2007-03-16 12:32:46 51°8.769 2°35.568 9.6987 3.678259 32.457468 -2.871232
2007-03-16 12:33:46 51°8.807 2°35.555 9.7058 3.677845 32.451716 -2.871232
2007-03-16 12:34:46 51°8.84 2°35.558 9.7165 3.677741 32.443121 -2.871232
2007-03-16 12:35:46 51°8.868 2°35.566 9.7159 3.678155 32.437087 -2.871232
2007-03-16 12:36:46 51°8.888 2°35.575 9.7121 3.677327 32.433164 -2.871232
2007-03-16 12:37:46 51°8.904 2°35.586 9.7076 3.676601 32.430255 -2.871232
2007-03-16 12:38:46 51°8.918 2°35.599 9.7105 3.676291 32.428889 -2.871232
2007-03-16 12:39:46 51°8.942 2°35.616 9.7087 3.676498 32.427556 -2.871232
2007-03-16 12:40:46 51°8.976 2°35.702 9.6983 3.676291 32.430572 -2.871232
2007-03-16 12:41:46 51°8.916 2°35.78 9.7349 3.676705 32.42286 -2.871232
2007-03-16 12:42:46 51°8.805 2°35.831 9.7207 3.679295 32.431442 -2.871232
2007-03-16 12:43:46 51°8.71 2°35.856 9.6863 3.680228 32.459099 -2.871232
2007-03-16 12:44:46 51°8.657 2°35.839 9.6583 3.678881 32.480431 -2.871232
2007-03-16 12:45:46 51°8.624 2°35.818 9.6434 3.677845 32.493041 -2.871232
2007-03-16 12:46:46 51°8.592 2°35.773 9.6357 3.677431 32.498259 -2.871232
2007-03-16 12:47:46 51°8.587 2°35.685 9.6314 3.677328 32.504846 -2.871232
2007-03-16 12:48:46 51°8.599 2°35.624 9.6342 3.676706 32.503805 -2.871232
2007-03-16 12:49:46 51°8.621 2°35.582 9.6449 3.676913 32.499081 -2.871232
2007-03-16 12:50:46 51°8.649 2°35.567 9.659 3.67712 32.493514 -2.871232
2007-03-16 12:51:46 51°8.686 2°35.569 9.6735 3.677535 32.484921 -2.871232
2007-03-16 12:52:46 51°8.733 2°35.63 9.6906 3.67826 32.476857 -2.871232
2007-03-16 12:53:46 51°8.763 2°35.737 9.6897 3.678777 32.470138 -2.871232
2007-03-16 12:54:46 51°8.781 2°35.838 9.6893 3.678881 32.470312 -2.871232
2007-03-16 12:55:46 51°8.8 2°35.921 9.6851 3.677845 32.460141 -2.871232
2007-03-16 12:56:46 51°8.818 2°35.994 9.6761 3.679088 32.479092 -2.871232
2007-03-16 12:57:46 51°8.82 2°36.067 9.673 3.678985 32.481449 -2.871232
2007-03-16 12:58:46 51°8.812 2°36.141 9.6811 3.678985 32.486511 -2.871232
2007-03-16 12:59:46 51°8.813 2°36.222 9.6778 3.679814 32.488745 -2.871232
2007-03-16 13:00:46 51°8.807 2°36.309 9.6766 3.679917 32.492294 -2.871232
2007-03-16 13:01:46 51°8.799 2°36.398 9.689 3.680228 32.493659 -2.871232
2007-03-16 13:02:46 51°8.791 2°36.487 9.697 3.681471 32.4949 -2.871232
2007-03-16 13:03:46 51°8.784 2°36.575 9.7107 3.682611 32.495966 -2.871232
2007-03-16 13:04:46 51°8.777 2°36.664 9.7157 3.683647 32.496859 -2.871232
2007-03-16 13:05:46 51°8.766 2°36.752 9.7144 3.684061 32.49924 -2.871232
2007-03-16 13:06:46 51°8.753 2°36.839 9.7191 3.684683 32.504497 -2.871232
2007-03-16 13:07:46 51°8.742 2°36.927 9.7072 3.685615 32.510274 -2.871232
2007-03-16 13:08:46 51°8.729 2°37.015 9.6938 3.685201 32.518861 -2.871232
2007-03-16 13:09:46 51°8.717 2°37.103 9.6994 3.68489 32.522562 -2.871232
2007-03-16 13:10:46 51°8.711 2°37.19 9.7141 3.685719 32.52479 -2.871232
2007-03-16 13:11:46 51°8.716 2°37.28 9.7242 3.687584 32.529591 -2.871232
2007-03-16 13:12:46 51°8.723 2°37.37 9.726 3.688827 32.535041 -2.871232
2007-03-16 13:13:46 51°8.73 2°37.46 9.7176 3.689241 32.538263 -2.871232
2007-03-16 13:14:46 51°8.737 2°37.55 9.7173 3.688827 32.537573 -2.871232
2007-03-16 13:15:46 51°8.743 2°37.64 9.704 3.688412 32.53857 -2.871232
2007-03-16 13:16:46 51°8.752 2°37.726 9.7018 3.687273 32.537514 -2.871232
2007-03-16 13:17:46 51°8.775 2°37.806 9.6988 3.686858 32.536823 -2.871232
2007-03-16 13:18:46 51°8.804 2°37.881 9.7032 3.686548 32.534616 -2.871232
2007-03-16 13:19:46 51°8.833 2°37.958 9.7075 3.686858 32.532601 -2.871232
2007-03-16 13:20:46 51°8.858 2°38.038 9.7231 3.687687 32.53314 -2.871232
2007-03-16 13:21:46 51°8.882 2°38.119 9.7345 3.68862 32.533852 -2.871232
2007-03-16 13:22:46 51°8.906 2°38.2 9.7572 3.690277 32.531556 -2.871232
2007-03-16 13:23:46 51°8.928 2°38.281 9.7771 3.692245 32.531469 -2.871232
2007-03-16 13:24:46 51°8.951 2°38.363 9.7926 3.694317 32.534083 -2.871232
2007-03-16 13:25:46 51°8.972 2°38.445 9.8109 3.695664 32.533804 -2.871232
2007-03-16 13:26:46 51°8.992 2°38.527 9.8281 3.697425 32.534217 -2.871232
2007-03-16 13:27:46 51°9.01 2°38.609 9.845 3.699083 32.533617 -2.871232
2007-03-16 13:28:46 51°9.028 2°38.692 9.8532 3.700429 32.534182 -2.871232
2007-03-16 13:29:46 51°9.036 2°38.775 9.8524 3.701155 32.534551 -2.871232
2007-03-16 13:30:46 51°9.02 2°38.852 9.8532 3.70074 32.53386 -2.871232
2007-03-16 13:31:46 51°8.989 2°38.915 9.8551 3.701051 32.534378 -2.871232
2007-03-16 13:32:46 51°8.945 2°38.943 9.8456 3.700947 32.534206 -2.871232
2007-03-16 13:33:46 51°8.911 2°38.941 9.8463 3.700015 32.529288 -2.871232
2007-03-16 13:34:46 51°8.886 2°38.938 9.8419 3.699704 32.527088 -2.871232
2007-03-16 13:35:46 51°8.866 2°38.937 9.8433 3.699393 32.525728 -2.871232
2007-03-16 13:36:46 51°8.849 2°38.94 9.8512 3.699704 32.526247 -2.871232
2007-03-16 13:37:46 51°8.824 2°38.978 9.843 3.699808 32.52558 -2.871232
2007-03-16 13:38:46 51°8.834 2°39.042 9.855 3.699911 32.524072 -2.871232
2007-03-16 13:39:46 51°8.936 2°39.134 9.8611 3.700636 32.526124 -2.871232
2007-03-16 13:40:46 51°9.11 2°39.276 9.8721 3.701465 32.524988 -2.871232
2007-03-16 13:41:46 51°9.322 2°39.351 9.922 3.70188 32.524 -2.871232
2007-03-16 13:42:46 51°9.535 2°39.453 10.0377 3.702087 32.526026 -2.871232
2007-03-16 13:43:45 51°9.74 2°39.577 10.1676 3.70219 32.526199 -2.871232
2007-03-16 13:44:46 51°9.949 2°39.706 10.3195 3.70219 32.52284 -2.871232
2007-03-16 13:45:45 51°10.152 2°39.832 10.5582 3.702501 32.520841 -2.871232
2007-03-16 13:46:46 51°10.362 2°39.966 10.8525 3.702812 32.517164 -2.871232
2007-03-16 13:47:46 51°10.565 2°40.117 10.9863 3.703226 32.510307 -2.871232
2007-03-16 13:48:46 51°10.766 2°40.281 11.2272 3.704262 32.508686 -2.871232
2007-03-16 13:49:46 51°10.917 2°40.532 11.4723 3.705505 32.507414 -2.871232
2007-03-16 13:50:46 51°10.992 2°40.862 11.6533 3.706956 32.510679 -2.871232
2007-03-16 13:51:46 51°11.076 2°41.186 11.8657 3.70851 32.513279 -2.871232
2007-03-16 13:52:46 51°11.172 2°41.505 12.0842 3.710374 32.518071 -2.871232
2007-03-16 13:53:46 51°11.254 2°41.833 12.3689 3.712032 32.520842 -2.871232
2007-03-16 13:54:46 51°11.32 2°42.171 12.5618 3.71369 32.525284 -2.871232
2007-03-16 13:55:46 51°11.386 2°42.508 12.644 3.715347 32.528889 -2.871232
2007-03-16 13:56:46 51°11.453 2°42.843 12.8749 3.717005 32.532491 -2.871232
2007-03-16 13:57:46 51°11.503 2°43.186 13.0294 3.718766 32.536266 -2.871232
2007-03-16 13:58:46 51°11.544 2°43.533 13.1735 3.72032 32.538857 -2.871232
2007-03-16 13:59:46 51°11.587 2°43.878 13.3098 3.722082 32.543464 -2.871232
2007-03-16 14:00:46 51°11.63 2°44.221 13.5243 3.723532 32.545045 -2.871232
2007-03-16 14:01:46 51°11.673 2°44.565 13.6729 3.725086 32.547634 -2.871232
2007-03-16 14:02:46 51°11.722 2°44.907 13.8247 3.726744 32.551228 -2.871232
2007-03-16 14:03:46 51°11.77 2°45.249 13.8987 3.728194 32.552808 -2.871232
2007-03-16 14:04:46 51°11.818 2°45.591 14.0223 3.729956 32.558241 -2.871232
2007-03-16 14:05:46 51°11.866 2°45.931 14.1588 3.731302 32.55798 -2.871232
2007-03-16 14:06:46 51°11.918 2°46.27 14.2651 3.733167 32.563582 -2.871232
2007-03-16 14:07:46 51°11.973 2°46.607 14.3695 3.734618 32.564326 -2.871232
2007-03-16 14:08:46 51°12.03 2°46.944 14.4632 3.736276 32.56708 -2.871232
2007-03-16 14:09:46 51°12.109 2°47.266 14.5578 3.737519 32.565815 -2.871232
2007-03-16 14:10:46 51°12.202 2°47.579 14.6346 3.739176 32.570234 -2.871232
2007-03-16 14:11:46 51°12.298 2°47.889 14.7371 3.740731 32.572814 -2.871232
2007-03-16 14:12:46 51°12.402 2°48.192 14.835 3.742285 32.575394 -2.871232
2007-03-16 14:13:46 51°12.507 2°48.495 14.9008 3.743942 32.578145 -2.871232
2007-03-16 14:14:46 51°12.61 2°48.8 15.0367 3.745289 32.578717 -2.871232
2007-03-16 14:15:46 51°12.713 2°49.104 15.0316 3.746947 32.582298 -2.871232
2007-03-16 14:16:46 51°12.815 2°49.41 15.1544 3.748501 32.584875 -2.871232
2007-03-16 14:17:46 51°12.918 2°49.714 15.2978 3.750055 32.587451 -2.871232
2007-03-16 14:18:46 51°13.02 2°50.021 15.3287 3.751299 32.58702 -2.871232
2007-03-16 14:19:46 51°13.127 2°50.321 15.385 3.752956 32.590597 -2.871232
2007-03-16 14:20:46 51°13.235 2°50.62 15.4611 3.7542 32.590168 -2.871232
2007-03-16 14:21:46 51°13.344 2°50.919 15.5219 3.755961 32.595573 -2.871232
2007-03-16 14:22:46 51°13.451 2°51.218 15.6289 3.757308 32.595316 -2.871232
2007-03-16 14:23:46 51°13.557 2°51.518 15.6724 3.758655 32.596717 -2.871232
2007-03-16 14:24:46 51°13.664 2°51.817 15.737 3.760313 32.600289 -2.871232
2007-03-16 14:25:46 51°13.77 2°52.116 15.8615 3.76166 32.600861 -2.871232
2007-03-16 14:26:46 51°13.878 2°52.415 15.867 3.76311 32.603261 -2.871232
2007-03-16 14:27:46 51°13.985 2°52.71 15.9496 3.764457 32.604661 -2.871232
2007-03-16 14:28:46 51°14.09 2°53.007 16.0077 3.765908 32.60706 -2.871232
2007-03-16 14:29:46 51°14.194 2°53.303 16.0991 3.767255 32.607632 -2.871232
2007-03-16 14:30:46 51°14.281 2°53.602 16.3049 3.768498 32.608034 -2.871232
2007-03-16 14:31:46 51°14.345 2°53.924 16.2556 3.770052 32.611429 -2.871232
2007-03-16 14:32:46 51°14.38 2°54.26 16.3141 3.771503 32.613826 -2.871232
2007-03-16 14:33:46 51°14.4 2°54.599 16.3036 3.77285 32.615225 -2.871232
2007-03-16 14:34:46 51°14.382 2°54.94 16.2665 3.774197 32.618276 -2.871232
2007-03-16 14:35:47 51°14.276 2°55.241 16.3192 3.775544 32.619674 -2.871232
2007-03-16 14:36:50 51°14.144 2°55.425 16.3298 3.776995 32.623719 -2.871232
2007-03-16 14:37:50 51°14.023 2°55.526 16.3218 3.778238 32.623295 -2.871232
2007-03-16 14:38:49 51°13.899 2°55.599 16.3292 3.779585 32.626342 -2.871232
2007-03-16 14:39:49 51°13.778 2°55.684 16.3704 3.781036 32.628735 -2.871232
2007-03-16 14:40:49 51°13.698 2°55.8 16.3844 3.782383 32.630956 -2.871232
2007-03-16 14:41:48 51°13.656 2°55.894 16.3791 3.78373 32.630704 -2.871232
2007-03-16 14:42:48 51°13.62 2°55.98 16.3964 3.784973 32.631929 -2.871232
2007-03-16 14:43:50 51°13.604 2°56.057 16.4285 3.78632 32.63415 -2.871232
2007-03-16 14:44:48 51°13.599 2°56.092 16.4427 3.787667 32.635546 -2.871232